Anzahl Datensätze: 286
min. Temperatur: 14.5 °C
max. Temperatur: 32.2 °C
max. Windgeschwindigkeit: 56.5 km/h
Niederschlagsumme: 2.6 mm
| Datum |
Zeit |
Temp °C |
Feuchte % |
Taupunkt °C |
Luftdruck hPa |
Wind km/h |
Windrichtung |
Strahlung w/m² |
Niederschlag mm |
|---|---|---|---|---|---|---|---|---|---|
| 20.07.2025 | 00:04 | 17.8 | 89 | 16.0 | 1008.4 | 0.0 | SW | 0 | 0.0 |
| 20.07.2025 | 00:09 | 17.6 | 90 | 15.9 | 1008.4 | 0.0 | SW | 0 | 0.0 |
| 20.07.2025 | 00:14 | 17.6 | 89 | 15.8 | 1008.4 | 0.0 | SW | 0 | 0.0 |
| 20.07.2025 | 00:19 | 17.5 | 89 | 15.7 | 1008.3 | 0.0 | SW | 0 | 0.0 |
| 20.07.2025 | 00:24 | 17.4 | 90 | 15.7 | 1008.3 | 0.0 | SW | 0 | 0.0 |
| 20.07.2025 | 00:29 | 17.4 | 89 | 15.6 | 1008.3 | 0.0 | SW | 0 | 0.0 |
| 20.07.2025 | 00:34 | 17.3 | 90 | 15.6 | 1008.3 | 0.0 | SW | 0 | 0.0 |
| 20.07.2025 | 00:39 | 17.3 | 90 | 15.6 | 1008.2 | 0.0 | SW | 0 | 0.0 |
| 20.07.2025 | 00:44 | 17.2 | 90 | 15.5 | 1008.2 | 0.0 | SSO | 0 | 0.0 |
| 20.07.2025 | 00:49 | 17.2 | 90 | 15.5 | 1008.2 | 0.0 | SSO | 0 | 0.0 |
| 20.07.2025 | 00:54 | 17.2 | 90 | 15.5 | 1008.2 | 0.0 | SSO | 0 | 0.0 |
| 20.07.2025 | 00:59 | 17.2 | 90 | 15.5 | 1008.0 | 0.0 | SSO | 0 | 0.0 |
| 20.07.2025 | 01:04 | 17.2 | 89 | 15.4 | 1008.0 | 0.0 | SSO | 0 | 0.0 |
| 20.07.2025 | 01:09 | 17.1 | 90 | 15.4 | 1008.1 | 0.0 | SSO | 0 | 0.0 |
| 20.07.2025 | 01:14 | 17.1 | 90 | 15.4 | 1008.0 | 0.0 | SSO | 0 | 0.0 |
| 20.07.2025 | 01:19 | 17.1 | 90 | 15.4 | 1007.9 | 0.0 | SSO | 0 | 0.0 |
| 20.07.2025 | 01:24 | 17.0 | 91 | 15.5 | 1007.9 | 0.0 | SSO | 0 | 0.0 |
| 20.07.2025 | 01:29 | 17.0 | 91 | 15.5 | 1007.8 | 0.0 | SSO | 0 | 0.0 |
| 20.07.2025 | 01:34 | 17.0 | 90 | 15.3 | 1007.7 | 0.0 | SSO | 0 | 0.0 |
| 20.07.2025 | 01:39 | 16.9 | 90 | 15.2 | 1007.8 | 0.0 | SSO | 0 | 0.0 |
| 20.07.2025 | 01:45 | 16.8 | 90 | 15.1 | 1007.8 | 0.0 | SSO | 0 | 0.0 |
| 20.07.2025 | 01:50 | 16.7 | 91 | 15.2 | 1007.7 | 0.0 | SSO | 0 | 0.0 |
| 20.07.2025 | 01:55 | 16.7 | 91 | 15.2 | 1007.7 | 1.8 | SSO | 0 | 0.0 |
| 20.07.2025 | 02:00 | 16.7 | 91 | 15.2 | 1007.6 | 4.3 | SSO | 0 | 0.0 |
| 20.07.2025 | 02:05 | 16.7 | 91 | 15.2 | 1007.6 | 0.0 | SSO | 0 | 0.0 |
| 20.07.2025 | 02:10 | 16.6 | 91 | 15.1 | 1007.5 | 0.0 | SSO | 0 | 0.0 |
| 20.07.2025 | 02:15 | 16.6 | 91 | 15.1 | 1007.5 | 0.0 | SSO | 0 | 0.0 |
| 20.07.2025 | 02:20 | 16.6 | 91 | 15.1 | 1007.5 | 0.0 | SSO | 0 | 0.0 |
| 20.07.2025 | 02:25 | 16.5 | 91 | 15.0 | 1007.5 | 0.0 | SSO | 0 | 0.0 |
| 20.07.2025 | 02:30 | 16.3 | 91 | 14.8 | 1007.5 | 0.0 | SSO | 0 | 0.0 |
| 20.07.2025 | 02:35 | 16.2 | 92 | 14.9 | 1007.4 | 0.0 | SSO | 0 | 0.0 |
| 20.07.2025 | 02:40 | 16.1 | 92 | 14.8 | 1007.5 | 0.0 | SSO | 0 | 0.0 |
| 20.07.2025 | 02:45 | 16.0 | 92 | 14.7 | 1007.5 | 4.3 | W | 0 | 0.0 |
| 20.07.2025 | 02:50 | 16.1 | 93 | 15.0 | 1007.5 | 1.8 | W | 0 | 0.0 |
| 20.07.2025 | 02:55 | 16.3 | 93 | 15.2 | 1007.3 | 4.3 | W | 0 | 0.0 |
| 20.07.2025 | 03:00 | 16.3 | 93 | 15.2 | 1007.4 | 0.0 | W | 0 | 0.0 |
| 20.07.2025 | 03:05 | 16.2 | 93 | 15.1 | 1007.3 | 0.0 | W | 0 | 0.0 |
| 20.07.2025 | 03:10 | 16.2 | 93 | 15.1 | 1007.2 | 0.0 | W | 0 | 0.0 |
| 20.07.2025 | 03:15 | 16.1 | 93 | 15.0 | 1007.3 | 0.0 | W | 0 | 0.0 |
| 20.07.2025 | 03:20 | 16.1 | 93 | 15.0 | 1007.2 | 0.0 | W | 0 | 0.0 |
| 20.07.2025 | 03:25 | 15.9 | 92 | 14.6 | 1007.2 | 0.0 | W | 0 | 0.0 |
| 20.07.2025 | 03:30 | 15.8 | 93 | 14.7 | 1007.2 | 0.0 | W | 0 | 0.0 |
| 20.07.2025 | 03:35 | 15.8 | 93 | 14.7 | 1007.2 | 0.0 | W | 0 | 0.0 |
| 20.07.2025 | 03:40 | 15.7 | 93 | 14.6 | 1007.2 | 0.0 | W | 0 | 0.0 |
| 20.07.2025 | 03:45 | 15.6 | 92 | 14.3 | 1007.2 | 0.0 | W | 0 | 0.0 |
| 20.07.2025 | 03:50 | 15.6 | 93 | 14.5 | 1007.1 | 0.0 | W | 0 | 0.0 |
| 20.07.2025 | 03:55 | 15.4 | 93 | 14.3 | 1007.1 | 0.0 | W | 0 | 0.0 |
| 20.07.2025 | 04:00 | 15.4 | 93 | 14.3 | 1007.1 | 0.0 | W | 0 | 0.0 |
| 20.07.2025 | 04:05 | 15.3 | 93 | 14.2 | 1007.1 | 0.0 | W | 0 | 0.0 |
| 20.07.2025 | 04:10 | 15.3 | 93 | 14.2 | 1007.1 | 0.0 | W | 0 | 0.0 |
| 20.07.2025 | 04:15 | 15.3 | 93 | 14.2 | 1007.1 | 0.0 | W | 0 | 0.0 |
| 20.07.2025 | 04:20 | 15.3 | 93 | 14.2 | 1007.0 | 0.0 | W | 0 | 0.0 |
| 20.07.2025 | 04:25 | 15.2 | 93 | 14.1 | 1006.9 | 0.0 | W | 0 | 0.0 |
| 20.07.2025 | 04:30 | 15.2 | 93 | 14.1 | 1007.0 | 0.0 | W | 0 | 0.0 |
| 20.07.2025 | 04:36 | 15.2 | 93 | 14.1 | 1006.9 | 0.0 | W | 0 | 0.0 |
| 20.07.2025 | 04:41 | 15.2 | 93 | 14.1 | 1006.8 | 0.0 | W | 0 | 0.0 |
| 20.07.2025 | 04:46 | 15.2 | 92 | 13.9 | 1006.8 | 0.0 | W | 0 | 0.0 |
| 20.07.2025 | 04:51 | 15.1 | 92 | 13.8 | 1006.9 | 0.0 | W | 0 | 0.0 |
| 20.07.2025 | 04:56 | 15.0 | 92 | 13.7 | 1006.8 | 0.0 | W | 0 | 0.0 |
| 20.07.2025 | 05:01 | 14.9 | 93 | 13.8 | 1006.8 | 0.0 | W | 0 | 0.0 |
| 20.07.2025 | 05:06 | 14.9 | 93 | 13.8 | 1006.8 | 0.0 | W | 0 | 0.0 |
| 20.07.2025 | 05:11 | 14.9 | 93 | 13.8 | 1006.7 | 0.0 | W | 0 | 0.0 |
| 20.07.2025 | 05:16 | 14.9 | 93 | 13.8 | 1006.6 | 0.0 | W | 0 | 0.0 |
| 20.07.2025 | 05:21 | 14.8 | 93 | 13.7 | 1006.6 | 0.0 | W | 0 | 0.0 |
| 20.07.2025 | 05:26 | 14.8 | 93 | 13.7 | 1006.7 | 0.0 | W | 0 | 0.0 |
| 20.07.2025 | 05:31 | 14.6 | 93 | 13.5 | 1006.7 | 0.0 | W | 0 | 0.0 |
| 20.07.2025 | 05:36 | 14.5 | 93 | 13.4 | 1006.7 | 0.0 | W | 0 | 0.0 |
| 20.07.2025 | 05:41 | 14.5 | 93 | 13.4 | 1006.8 | 0.0 | W | 0 | 0.0 |
| 20.07.2025 | 05:46 | 14.5 | 93 | 13.4 | 1006.8 | 0.0 | W | 7 | 0.0 |
| 20.07.2025 | 05:51 | 14.5 | 94 | 13.5 | 1006.8 | 0.0 | W | 7 | 0.0 |
| 20.07.2025 | 05:56 | 14.5 | 93 | 13.4 | 1006.7 | 0.0 | W | 9 | 0.0 |
| 20.07.2025 | 06:01 | 14.6 | 93 | 13.5 | 1006.7 | 0.0 | W | 11 | 0.0 |
| 20.07.2025 | 06:06 | 14.6 | 93 | 13.5 | 1006.7 | 0.0 | W | 14 | 0.0 |
| 20.07.2025 | 06:11 | 14.5 | 93 | 13.4 | 1006.7 | 0.0 | W | 16 | 0.0 |
| 20.07.2025 | 06:16 | 14.5 | 93 | 13.4 | 1006.7 | 0.0 | W | 19 | 0.0 |
| 20.07.2025 | 06:21 | 14.6 | 93 | 13.5 | 1006.6 | 0.0 | W | 25 | 0.0 |
| 20.07.2025 | 06:26 | 14.8 | 93 | 13.7 | 1006.5 | 0.0 | W | 30 | 0.0 |
| 20.07.2025 | 06:31 | 15.0 | 93 | 13.9 | 1006.5 | 0.0 | W | 40 | 0.0 |
| 20.07.2025 | 06:36 | 15.2 | 93 | 14.1 | 1006.6 | 0.0 | W | 51 | 0.0 |
| 20.07.2025 | 06:41 | 15.3 | 93 | 14.2 | 1006.6 | 0.0 | W | 67 | 0.0 |
| 20.07.2025 | 06:46 | 15.5 | 93 | 14.4 | 1006.7 | 0.0 | W | 86 | 0.0 |
| 20.07.2025 | 06:51 | 15.7 | 93 | 14.6 | 1006.6 | 0.0 | W | 98 | 0.0 |
| 20.07.2025 | 06:56 | 16.0 | 93 | 14.9 | 1006.6 | 0.0 | WNW | 102 | 0.0 |
| 20.07.2025 | 07:01 | 16.4 | 93 | 15.3 | 1006.6 | 0.0 | N | 97 | 0.0 |
| 20.07.2025 | 07:06 | 16.8 | 93 | 15.7 | 1006.5 | 0.0 | N | 93 | 0.0 |
| 20.07.2025 | 07:11 | 17.1 | 92 | 15.8 | 1006.6 | 0.0 | N | 90 | 0.0 |
| 20.07.2025 | 07:16 | 17.3 | 92 | 16.0 | 1006.6 | 0.0 | N | 90 | 0.0 |
| 20.07.2025 | 07:21 | 17.5 | 89 | 15.7 | 1006.6 | 0.0 | N | 83 | 0.0 |
| 20.07.2025 | 07:26 | 17.5 | 89 | 15.7 | 1006.6 | 0.0 | N | 77 | 0.0 |
| 20.07.2025 | 07:31 | 17.4 | 89 | 15.6 | 1006.5 | 0.0 | N | 76 | 0.0 |
| 20.07.2025 | 07:36 | 17.4 | 89 | 15.6 | 1006.5 | 0.0 | N | 76 | 0.0 |
| 20.07.2025 | 07:41 | 17.6 | 89 | 15.8 | 1006.6 | 0.0 | N | 70 | 0.0 |
| 20.07.2025 | 07:47 | 17.6 | 89 | 15.8 | 1006.6 | 0.0 | N | 67 | 0.0 |
| 20.07.2025 | 07:52 | 17.7 | 89 | 15.9 | 1006.5 | 0.0 | N | 69 | 0.0 |
| 20.07.2025 | 07:57 | 17.8 | 88 | 15.8 | 1006.6 | 0.0 | N | 70 | 0.0 |
| 20.07.2025 | 08:02 | 17.9 | 88 | 15.9 | 1006.6 | 0.0 | OSO | 74 | 0.0 |
| 20.07.2025 | 08:07 | 18.1 | 88 | 16.1 | 1006.5 | 0.0 | OSO | 151 | 0.0 |
| 20.07.2025 | 08:12 | 18.1 | 88 | 16.1 | 1006.5 | 0.0 | OSO | 257 | 0.0 |
| 20.07.2025 | 08:17 | 18.4 | 88 | 16.4 | 1006.5 | 0.0 | OSO | 276 | 0.0 |
| 20.07.2025 | 08:22 | 18.8 | 87 | 16.6 | 1006.4 | 0.0 | OSO | 313 | 0.0 |
| 20.07.2025 | 08:27 | 19.2 | 85 | 16.6 | 1006.4 | 0.0 | OSO | 316 | 0.0 |
| 20.07.2025 | 08:32 | 19.7 | 84 | 16.9 | 1006.5 | 0.0 | OSO | 350 | 0.0 |
| 20.07.2025 | 08:37 | 20.0 | 82 | 16.8 | 1006.5 | 0.0 | OSO | 316 | 0.0 |
| 20.07.2025 | 08:42 | 20.3 | 82 | 17.1 | 1006.5 | 1.8 | OSO | 309 | 0.0 |
| 20.07.2025 | 08:47 | 20.5 | 81 | 17.1 | 1006.5 | 0.0 | OSO | 214 | 0.0 |
| 20.07.2025 | 08:52 | 20.8 | 80 | 17.2 | 1006.5 | 0.0 | O | 381 | 0.0 |
| 20.07.2025 | 08:57 | 21.3 | 82 | 18.1 | 1006.5 | 4.3 | ONO | 420 | 0.0 |
| 20.07.2025 | 09:02 | 21.5 | 79 | 17.7 | 1006.4 | 4.3 | ONO | 462 | 0.0 |
| 20.07.2025 | 09:07 | 21.7 | 79 | 17.9 | 1006.4 | 4.3 | ONO | 434 | 0.0 |
| 20.07.2025 | 09:12 | 22.1 | 78 | 18.1 | 1006.4 | 4.3 | ONO | 411 | 0.0 |
| 20.07.2025 | 09:17 | 22.2 | 77 | 18.0 | 1006.4 | 1.8 | ONO | 281 | 0.0 |
| 20.07.2025 | 09:22 | 21.9 | 76 | 17.5 | 1006.6 | 0.0 | NNO | 232 | 0.0 |
| 20.07.2025 | 09:27 | 22.1 | 77 | 17.9 | 1006.5 | 1.8 | NW | 374 | 0.0 |
| 20.07.2025 | 09:32 | 22.4 | 78 | 18.4 | 1006.5 | 0.0 | W | 457 | 0.0 |
| 20.07.2025 | 09:37 | 22.6 | 76 | 18.2 | 1006.5 | 4.3 | N | 388 | 0.0 |
| 20.07.2025 | 09:42 | 22.5 | 76 | 18.1 | 1006.5 | 1.8 | N | 422 | 0.0 |
| 20.07.2025 | 09:47 | 22.9 | 76 | 18.4 | 1006.4 | 1.8 | W | 512 | 0.0 |
| 20.07.2025 | 09:52 | 23.3 | 75 | 18.6 | 1006.4 | 1.8 | NNO | 550 | 0.0 |
| 20.07.2025 | 09:57 | 23.2 | 74 | 18.3 | 1006.5 | 0.0 | NW | 499 | 0.0 |
| 20.07.2025 | 10:02 | 23.5 | 74 | 18.6 | 1006.3 | 1.8 | NNW | 603 | 0.0 |
| 20.07.2025 | 10:07 | 23.7 | 73 | 18.6 | 1006.3 | 0.0 | ONO | 575 | 0.0 |
| 20.07.2025 | 10:12 | 24.3 | 73 | 19.1 | 1006.3 | 0.0 | ONO | 561 | 0.0 |
| 20.07.2025 | 10:17 | 24.4 | 71 | 18.8 | 1006.3 | 6.1 | ONO | 522 | 0.0 |
| 20.07.2025 | 10:22 | 24.2 | 71 | 18.6 | 1006.2 | 1.8 | NNO | 524 | 0.0 |
| 20.07.2025 | 10:27 | 24.3 | 71 | 18.7 | 1006.1 | 0.0 | O | 552 | 0.0 |
| 20.07.2025 | 10:32 | 24.7 | 71 | 19.1 | 1005.9 | 8.3 | O | 496 | 0.0 |
| 20.07.2025 | 10:37 | 24.8 | 70 | 19.0 | 1006.0 | 4.3 | OSO | 499 | 0.0 |
| 20.07.2025 | 10:43 | 25.1 | 70 | 19.2 | 1006.0 | 6.1 | O | 568 | 0.0 |
| 20.07.2025 | 10:48 | 25.2 | 68 | 18.9 | 1006.0 | 1.8 | NO | 445 | 0.0 |
| 20.07.2025 | 10:53 | 25.2 | 70 | 19.3 | 1006.1 | 1.8 | ONO | 515 | 0.0 |
| 20.07.2025 | 10:58 | 25.3 | 68 | 19.0 | 1006.0 | 0.0 | ONO | 589 | 0.0 |
| 20.07.2025 | 11:03 | 25.4 | 67 | 18.8 | 1005.9 | 4.3 | NO | 601 | 0.0 |
| 20.07.2025 | 11:08 | 25.6 | 67 | 19.0 | 1005.8 | 4.3 | ONO | 559 | 0.0 |
| 20.07.2025 | 11:13 | 25.5 | 67 | 18.9 | 1005.8 | 4.3 | ONO | 652 | 0.0 |
| 20.07.2025 | 11:18 | 25.5 | 66 | 18.7 | 1005.6 | 6.1 | O | 513 | 0.0 |
| 20.07.2025 | 11:23 | 25.9 | 66 | 19.1 | 1005.5 | 1.8 | OSO | 499 | 0.0 |
| 20.07.2025 | 11:28 | 26.1 | 65 | 19.0 | 1005.4 | 4.3 | O | 633 | 0.0 |
| 20.07.2025 | 11:33 | 26.5 | 63 | 18.9 | 1005.4 | 8.3 | ONO | 735 | 0.0 |
| 20.07.2025 | 11:38 | 26.3 | 65 | 19.2 | 1005.3 | 16.9 | ONO | 541 | 0.0 |
| 20.07.2025 | 11:43 | 26.3 | 62 | 18.4 | 1005.3 | 6.1 | OSO | 390 | 0.0 |
| 20.07.2025 | 11:48 | 26.0 | 62 | 18.2 | 1005.2 | 4.3 | O | 353 | 0.0 |
| 20.07.2025 | 11:53 | 25.8 | 61 | 17.7 | 1005.2 | 4.3 | O | 367 | 0.0 |
| 20.07.2025 | 11:58 | 26.1 | 60 | 17.7 | 1005.1 | 10.4 | NO | 478 | 0.0 |
| 20.07.2025 | 12:03 | 26.4 | 60 | 18.0 | 1005.0 | 10.4 | ONO | 524 | 0.0 |
| 20.07.2025 | 12:08 | 26.5 | 60 | 18.1 | 1004.9 | 10.4 | NO | 439 | 0.0 |
| 20.07.2025 | 12:13 | 26.6 | 61 | 18.5 | 1004.8 | 10.4 | O | 592 | 0.0 |
| 20.07.2025 | 12:18 | 27.2 | 61 | 19.0 | 1004.7 | 6.1 | O | 536 | 0.0 |
| 20.07.2025 | 12:23 | 27.6 | 58 | 18.6 | 1004.7 | 8.3 | ONO | 596 | 0.0 |
| 20.07.2025 | 12:28 | 27.7 | 61 | 19.5 | 1004.7 | 0.0 | O | 466 | 0.0 |
| 20.07.2025 | 12:33 | 27.7 | 57 | 18.4 | 1004.7 | 18.7 | ONO | 721 | 0.0 |
| 20.07.2025 | 12:38 | 27.8 | 57 | 18.5 | 1004.7 | 8.3 | NO | 763 | 0.0 |
| 20.07.2025 | 12:43 | 28.2 | 57 | 18.9 | 1004.7 | 4.3 | NO | 786 | 0.0 |
| 20.07.2025 | 12:48 | 28.3 | 56 | 18.7 | 1004.7 | 8.3 | OSO | 728 | 0.0 |
| 20.07.2025 | 12:53 | 28.2 | 56 | 18.6 | 1004.6 | 4.3 | SSO | 675 | 0.0 |
| 20.07.2025 | 12:58 | 28.1 | 57 | 18.8 | 1004.4 | 6.1 | S | 726 | 0.0 |
| 20.07.2025 | 13:03 | 28.7 | 57 | 19.3 | 1004.4 | 1.8 | NO | 638 | 0.0 |
| 20.07.2025 | 13:08 | 28.6 | 55 | 18.7 | 1004.5 | 10.4 | ONO | 555 | 0.0 |
| 20.07.2025 | 13:13 | 28.6 | 56 | 19.0 | 1004.3 | 1.8 | NNW | 596 | 0.0 |
| 20.07.2025 | 13:18 | 28.1 | 58 | 19.1 | 1004.3 | 10.4 | ONO | 399 | 0.0 |
| 20.07.2025 | 13:23 | 27.9 | 57 | 18.6 | 1004.3 | 6.1 | ONO | 439 | 0.0 |
| 20.07.2025 | 13:28 | 27.9 | 57 | 18.6 | 1004.2 | 4.3 | OSO | 418 | 0.0 |
| 20.07.2025 | 13:34 | 28.1 | 57 | 18.8 | 1004.1 | 10.4 | OSO | 541 | 0.0 |
| 20.07.2025 | 13:39 | 28.9 | 58 | 19.8 | 1004.0 | 1.8 | NNO | 489 | 0.0 |
| 20.07.2025 | 13:44 | 29.5 | 54 | 19.2 | 1004.0 | 0.0 | O | 918 | 0.0 |
| 20.07.2025 | 13:49 | 28.5 | 58 | 19.4 | 1003.9 | 12.6 | OSO | 784 | 0.0 |
| 20.07.2025 | 13:54 | 29.4 | 55 | 19.4 | 1003.9 | 0.0 | O | 584 | 0.0 |
| 20.07.2025 | 13:59 | 29.1 | 56 | 19.4 | 1003.8 | 4.3 | SO | 573 | 0.0 |
| 20.07.2025 | 14:04 | 29.1 | 55 | 19.1 | 1003.7 | 4.3 | O | 708 | 0.0 |
| 20.07.2025 | 14:09 | 29.4 | 54 | 19.1 | 1003.6 | 0.0 | O | 633 | 0.0 |
| 20.07.2025 | 14:14 | 29.6 | 56 | 19.9 | 1003.5 | 1.8 | ONO | 490 | 0.0 |
| 20.07.2025 | 14:19 | 29.1 | 56 | 19.4 | 1003.4 | 1.8 | N | 425 | 0.0 |
| 20.07.2025 | 14:24 | 28.8 | 57 | 19.4 | 1003.4 | 6.1 | SO | 387 | 0.0 |
| 20.07.2025 | 14:29 | 28.7 | 57 | 19.3 | 1003.4 | 8.3 | S | 364 | 0.0 |
| 20.07.2025 | 14:34 | 28.6 | 58 | 19.5 | 1003.4 | 4.3 | SSW | 362 | 0.0 |
| 20.07.2025 | 14:39 | 28.7 | 57 | 19.3 | 1003.3 | 0.0 | OSO | 362 | 0.0 |
| 20.07.2025 | 14:44 | 29.1 | 59 | 20.3 | 1003.3 | 1.8 | SO | 469 | 0.0 |
| 20.07.2025 | 14:49 | 29.3 | 56 | 19.6 | 1003.3 | 0.0 | SSO | 571 | 0.0 |
| 20.07.2025 | 14:54 | 29.3 | 57 | 19.9 | 1003.1 | 4.3 | SSW | 510 | 0.0 |
| 20.07.2025 | 14:59 | 29.6 | 57 | 20.2 | 1003.1 | 10.4 | SO | 598 | 0.0 |
| 20.07.2025 | 15:04 | 29.9 | 56 | 20.2 | 1002.9 | 6.1 | S | 496 | 0.0 |
| 20.07.2025 | 15:09 | 29.6 | 55 | 19.6 | 1002.8 | 4.3 | ONO | 531 | 0.0 |
| 20.07.2025 | 15:14 | 29.8 | 55 | 19.8 | 1002.7 | 1.8 | SSW | 710 | 0.0 |
| 20.07.2025 | 15:19 | 30.1 | 55 | 20.1 | 1002.7 | 4.3 | SSW | 700 | 0.0 |
| 20.07.2025 | 15:24 | 30.8 | 53 | 20.1 | 1002.7 | 6.1 | WSW | 738 | 0.0 |
| 20.07.2025 | 15:29 | 30.5 | 53 | 19.8 | 1002.6 | 0.0 | SSO | 788 | 0.0 |
| 20.07.2025 | 15:34 | 30.3 | 52 | 19.3 | 1002.6 | 8.3 | SW | 357 | 0.0 |
| 20.07.2025 | 15:39 | 30.6 | 55 | 20.5 | 1002.6 | 14.4 | SSW | 633 | 0.0 |
| 20.07.2025 | 15:44 | 31.0 | 52 | 20.0 | 1002.6 | 10.4 | SSW | 846 | 0.0 |
| 20.07.2025 | 15:49 | 31.2 | 52 | 20.2 | 1002.5 | 16.9 | SSW | 831 | 0.0 |
| 20.07.2025 | 15:54 | 31.3 | 52 | 20.3 | 1002.5 | 8.3 | SSW | 925 | 0.0 |
| 20.07.2025 | 15:59 | 31.3 | 51 | 20.0 | 1002.4 | 6.1 | OSO | 494 | 0.0 |
| 20.07.2025 | 16:04 | 31.3 | 53 | 20.6 | 1002.4 | 8.3 | S | 912 | 0.0 |
| 20.07.2025 | 16:09 | 31.4 | 51 | 20.0 | 1002.4 | 8.3 | S | 446 | 0.0 |
| 20.07.2025 | 16:14 | 31.1 | 52 | 20.1 | 1002.4 | 8.3 | OSO | 383 | 0.0 |
| 20.07.2025 | 16:19 | 30.8 | 53 | 20.1 | 1002.3 | 16.9 | S | 415 | 0.0 |
| 20.07.2025 | 16:24 | 30.9 | 52 | 19.9 | 1002.3 | 12.6 | SSW | 867 | 0.0 |
| 20.07.2025 | 16:30 | 31.2 | 52 | 20.2 | 1002.2 | 4.3 | S | 334 | 0.0 |
| 20.07.2025 | 16:35 | 31.1 | 51 | 19.8 | 1002.2 | 10.4 | SSW | 448 | 0.0 |
| 20.07.2025 | 16:40 | 30.8 | 52 | 19.8 | 1002.1 | 23.0 | SSO | 582 | 0.0 |
| 20.07.2025 | 16:45 | 31.3 | 51 | 20.0 | 1002.0 | 18.7 | S | 615 | 0.0 |
| 20.07.2025 | 16:50 | 31.8 | 51 | 20.4 | 1001.9 | 8.3 | S | 786 | 0.0 |
| 20.07.2025 | 16:55 | 31.8 | 50 | 20.1 | 1001.7 | 10.4 | S | 698 | 0.0 |
| 20.07.2025 | 17:00 | 31.6 | 50 | 19.9 | 1001.8 | 4.3 | SSO | 708 | 0.0 |
| 20.07.2025 | 17:05 | 32.0 | 50 | 20.3 | 1001.8 | 6.1 | O | 715 | 0.0 |
| 20.07.2025 | 17:10 | 31.9 | 50 | 20.2 | 1001.7 | 16.9 | SSW | 737 | 0.0 |
| 20.07.2025 | 17:15 | 32.1 | 51 | 20.7 | 1001.8 | 21.2 | SSO | 717 | 0.0 |
| 20.07.2025 | 17:20 | 32.2 | 49 | 20.1 | 1001.7 | 14.4 | SW | 285 | 0.0 |
| 20.07.2025 | 17:25 | 30.9 | 52 | 19.9 | 1001.7 | 12.6 | SSO | 236 | 0.0 |
| 20.07.2025 | 17:30 | 30.2 | 54 | 19.9 | 1001.8 | 14.4 | SSO | 193 | 0.0 |
| 20.07.2025 | 17:35 | 29.7 | 55 | 19.7 | 1001.8 | 8.3 | S | 155 | 0.0 |
| 20.07.2025 | 17:40 | 29.3 | 56 | 19.6 | 1001.9 | 12.6 | S | 192 | 0.0 |
| 20.07.2025 | 17:45 | 29.8 | 56 | 20.1 | 1002.0 | 12.6 | S | 636 | 0.0 |
| 20.07.2025 | 17:50 | 30.6 | 55 | 20.5 | 1002.0 | 10.4 | SSW | 503 | 0.0 |
| 20.07.2025 | 17:55 | 30.6 | 52 | 19.6 | 1001.9 | 8.3 | SSW | 478 | 0.0 |
| 20.07.2025 | 18:00 | 30.5 | 53 | 19.8 | 1002.0 | 8.3 | SSW | 209 | 0.0 |
| 20.07.2025 | 18:05 | 30.0 | 54 | 19.7 | 1002.1 | 18.7 | S | 179 | 0.0 |
| 20.07.2025 | 18:10 | 29.8 | 56 | 20.1 | 1002.1 | 6.1 | S | 186 | 0.0 |
| 20.07.2025 | 18:15 | 29.7 | 57 | 20.3 | 1002.2 | 10.4 | SW | 179 | 0.0 |
| 20.07.2025 | 18:20 | 29.6 | 57 | 20.2 | 1002.2 | 6.1 | SW | 148 | 0.0 |
| 20.07.2025 | 18:25 | 29.4 | 58 | 20.3 | 1002.6 | 10.4 | NW | 62 | 0.0 |
| 20.07.2025 | 18:30 | 28.4 | 60 | 19.9 | 1003.4 | 16.9 | W | 18 | 0.0 |
| 20.07.2025 | 18:35 | 26.5 | 63 | 18.9 | 1003.6 | 6.1 | WNW | 19 | 0.0 |
| 20.07.2025 | 18:40 | 25.3 | 66 | 18.5 | 1004.0 | 23.0 | W | 16 | 0.0 |
| 20.07.2025 | 18:45 | 24.4 | 68 | 18.1 | 1004.5 | 21.2 | WNW | 7 | 0.0 |
| 20.07.2025 | 18:50 | 23.8 | 69 | 17.8 | 1004.8 | 33.8 | WNW | 16 | 0.0 |
| 20.07.2025 | 18:55 | 23.3 | 71 | 17.7 | 1004.9 | 23.0 | W | 19 | 0.0 |
| 20.07.2025 | 19:00 | 22.8 | 74 | 17.9 | 1004.8 | 18.7 | WNW | 14 | 0.0 |
| 20.07.2025 | 19:05 | 22.4 | 76 | 18.0 | 1005.1 | 16.9 | NW | 11 | 0.0 |
| 20.07.2025 | 19:11 | 21.8 | 81 | 18.4 | 1005.0 | 8.3 | W | 12 | 0.0 |
| 20.07.2025 | 19:16 | 21.2 | 83 | 18.2 | 1005.1 | 16.9 | WNW | 14 | 0.2 |
| 20.07.2025 | 19:21 | 20.8 | 85 | 18.2 | 1004.8 | 14.4 | WNW | 11 | 0.2 |
| 20.07.2025 | 19:26 | 20.4 | 87 | 18.2 | 1005.0 | 6.1 | NW | 9 | 1.2 |
| 20.07.2025 | 19:31 | 20.0 | 89 | 18.1 | 1004.6 | 1.8 | WNW | 14 | 2.2 |
| 20.07.2025 | 19:36 | 19.9 | 90 | 18.2 | 1004.9 | 0.0 | WNW | 12 | 2.2 |
| 20.07.2025 | 19:41 | 19.9 | 91 | 18.4 | 1005.3 | 4.3 | WSW | 12 | 2.2 |
| 20.07.2025 | 19:46 | 19.8 | 92 | 18.5 | 1005.2 | 8.3 | SO | 14 | 2.4 |
| 20.07.2025 | 19:51 | 19.8 | 92 | 18.5 | 1005.4 | 6.1 | SSO | 18 | 2.4 |
| 20.07.2025 | 19:56 | 19.8 | 92 | 18.5 | 1005.4 | 8.3 | OSO | 21 | 2.6 |
| 20.07.2025 | 20:01 | 19.7 | 92 | 18.4 | 1005.2 | 10.4 | SO | 33 | 2.6 |
| 20.07.2025 | 20:06 | 19.8 | 93 | 18.6 | 1005.0 | 10.4 | S | 53 | 2.6 |
| 20.07.2025 | 20:11 | 19.7 | 93 | 18.5 | 1004.9 | 4.3 | SSO | 37 | 2.6 |
| 20.07.2025 | 20:16 | 19.6 | 93 | 18.4 | 1004.9 | 4.3 | SSO | 32 | 2.6 |
| 20.07.2025 | 20:21 | 19.6 | 93 | 18.4 | 1004.9 | 6.1 | S | 33 | 2.6 |
| 20.07.2025 | 20:26 | 19.6 | 92 | 18.3 | 1005.1 | 4.3 | S | 32 | 2.6 |
| 20.07.2025 | 20:31 | 19.6 | 93 | 18.4 | 1005.2 | 12.6 | S | 33 | 2.6 |
| 20.07.2025 | 20:36 | 19.5 | 93 | 18.3 | 1005.3 | 10.4 | SSO | 32 | 2.6 |
| 20.07.2025 | 20:41 | 19.3 | 92 | 18.0 | 1005.5 | 4.3 | SW | 32 | 2.6 |
| 20.07.2025 | 20:46 | 19.2 | 92 | 17.9 | 1005.5 | 12.6 | S | 30 | 2.6 |
| 20.07.2025 | 20:51 | 19.2 | 92 | 17.9 | 1005.6 | 12.6 | S | 25 | 2.6 |
| 20.07.2025 | 20:56 | 19.1 | 92 | 17.8 | 1005.5 | 10.4 | SSW | 19 | 2.6 |
| 20.07.2025 | 21:01 | 19.1 | 92 | 17.8 | 1005.6 | 6.1 | SSW | 19 | 2.6 |
| 20.07.2025 | 21:06 | 18.9 | 92 | 17.6 | 1005.5 | 8.3 | S | 26 | 2.6 |
| 20.07.2025 | 21:11 | 18.9 | 92 | 17.6 | 1005.3 | 10.4 | S | 23 | 2.6 |
| 20.07.2025 | 21:16 | 18.9 | 92 | 17.6 | 1005.3 | 4.3 | SW | 11 | 2.6 |
| 20.07.2025 | 21:21 | 18.8 | 92 | 17.5 | 1005.4 | 6.1 | SSW | 5 | 2.6 |
| 20.07.2025 | 21:26 | 18.8 | 93 | 17.6 | 1005.5 | 4.3 | SSW | 0 | 2.6 |
| 20.07.2025 | 21:31 | 18.8 | 93 | 17.6 | 1005.4 | 0.0 | SSW | 0 | 2.6 |
| 20.07.2025 | 21:36 | 18.8 | 93 | 17.6 | 1005.2 | 0.0 | SSW | 0 | 2.6 |
| 20.07.2025 | 21:41 | 18.8 | 93 | 17.6 | 1005.2 | 0.0 | SSW | 0 | 2.6 |
| 20.07.2025 | 21:46 | 18.8 | 93 | 17.6 | 1005.3 | 1.8 | SSW | 0 | 2.6 |
| 20.07.2025 | 21:52 | 18.8 | 93 | 17.6 | 1005.3 | 4.3 | SSW | 0 | 2.6 |
| 20.07.2025 | 21:57 | 18.7 | 93 | 17.5 | 1005.4 | 1.8 | SSW | 0 | 2.6 |
| 20.07.2025 | 22:02 | 18.7 | 93 | 17.5 | 1005.6 | 4.3 | WSW | 0 | 2.6 |
| 20.07.2025 | 22:07 | 18.6 | 93 | 17.4 | 1005.6 | 4.3 | SW | 0 | 2.6 |
| 20.07.2025 | 22:12 | 18.6 | 93 | 17.4 | 1005.5 | 4.3 | SW | 0 | 2.6 |
| 20.07.2025 | 22:17 | 18.6 | 94 | 17.6 | 1005.6 | 4.3 | WSW | 0 | 2.6 |
| 20.07.2025 | 22:22 | 18.5 | 94 | 17.5 | 1005.5 | 0.0 | WSW | 0 | 2.6 |
| 20.07.2025 | 22:27 | 18.5 | 94 | 17.5 | 1005.5 | 4.3 | WSW | 0 | 2.6 |
| 20.07.2025 | 22:32 | 18.4 | 94 | 17.4 | 1005.4 | 0.0 | WSW | 0 | 2.6 |
| 20.07.2025 | 22:37 | 18.5 | 94 | 17.5 | 1005.5 | 1.8 | WSW | 0 | 2.6 |
| 20.07.2025 | 22:42 | 18.4 | 94 | 17.4 | 1005.7 | 6.1 | WSW | 0 | 2.6 |
| 20.07.2025 | 22:47 | 18.4 | 94 | 17.4 | 1005.9 | 6.1 | WSW | 0 | 2.6 |
| 20.07.2025 | 22:52 | 18.4 | 94 | 17.4 | 1005.9 | 8.3 | WSW | 0 | 2.6 |
| 20.07.2025 | 22:57 | 18.4 | 94 | 17.4 | 1005.9 | 6.1 | SW | 0 | 2.6 |
| 20.07.2025 | 23:02 | 18.5 | 94 | 17.5 | 1005.8 | 0.0 | SW | 0 | 2.6 |
| 20.07.2025 | 23:07 | 18.5 | 94 | 17.5 | 1005.7 | 0.0 | SW | 0 | 2.6 |
| 20.07.2025 | 23:12 | 18.4 | 94 | 17.4 | 1005.8 | 4.3 | SW | 0 | 2.6 |
| 20.07.2025 | 23:17 | 18.4 | 94 | 17.4 | 1005.9 | 1.8 | SW | 0 | 2.6 |
| 20.07.2025 | 23:22 | 18.3 | 94 | 17.3 | 1005.9 | 4.3 | SW | 0 | 2.6 |
| 20.07.2025 | 23:27 | 18.3 | 94 | 17.3 | 1006.0 | 0.0 | SW | 0 | 2.6 |
| 20.07.2025 | 23:32 | 18.3 | 94 | 17.3 | 1005.9 | 0.0 | SW | 0 | 2.6 |
| 20.07.2025 | 23:37 | 18.3 | 94 | 17.3 | 1005.9 | 0.0 | SW | 0 | 2.6 |
| 20.07.2025 | 23:42 | 18.3 | 94 | 17.3 | 1006.0 | 1.8 | SW | 0 | 2.6 |
| 20.07.2025 | 23:47 | 18.3 | 94 | 17.3 | 1005.9 | 0.0 | SW | 0 | 2.6 |
| 20.07.2025 | 23:52 | 18.3 | 94 | 17.3 | 1005.8 | 0.0 | SW | 0 | 2.6 |
| 20.07.2025 | 23:57 | 18.3 | 94 | 17.3 | 1005.9 | 1.8 | SW | 0 | 2.6 |